Time;durP1;ratioP1;P1;durP2;ratioP2;P2;SDS_P1;SDS_P2;PMS_P1;PMS_P2;Temp;Humidity;BMP_temperature;BMP_pressure;BME280_temperature;BME280_humidity;BME280_pressure;Samples;Min_cycle;Max_cycle;Signal;HPM_P1;HPM_P2
2022/06/06 00:00:24;;;;;;;17.70;15.82;;;15.60;99.90;;;;;;5026770;28;20109;-72
2022/06/06 00:02:50;;;;;;;16.38;14.77;;;15.60;99.90;;;;;;5020234;28;20396;-71
2022/06/06 00:05:16;;;;;;;16.95;15.10;;;15.60;99.90;;;;;;5033733;28;20100;-72
2022/06/06 00:07:43;;;;;;;16.02;14.43;;;15.50;99.90;;;;;;5028583;28;20492;-72
2022/06/06 00:10:10;;;;;;;14.77;13.13;;;15.60;99.90;;;;;;5042029;28;20725;-72
2022/06/06 00:12:36;;;;;;;14.63;13.13;;;15.50;99.90;;;;;;5045106;28;20097;-72
2022/06/06 00:15:03;;;;;;;13.50;11.75;;;15.50;99.90;;;;;;5031742;28;20131;-72
2022/06/06 00:17:29;;;;;;;12.20;10.90;;;15.50;99.90;;;;;;5027283;28;20049;-73
2022/06/06 00:19:55;;;;;;;14.30;12.82;;;15.50;99.90;;;;;;5040311;28;20048;-72
2022/06/06 00:22:20;;;;;;;14.43;12.85;;;15.50;99.90;;;;;;5036138;28;20407;-72
2022/06/06 00:24:46;;;;;;;15.30;13.35;;;15.50;99.90;;;;;;5032220;28;20398;-72
2022/06/06 00:27:12;;;;;;;14.05;12.68;;;15.50;99.90;;;;;;5013584;28;20049;-72
2022/06/06 00:29:38;;;;;;;15.85;13.77;;;15.50;99.90;;;;;;5051772;28;20495;-72
2022/06/06 00:34:52;;;;;;;15.27;13.68;;;15.40;99.90;;;;;;5044025;28;20051;-72
2022/06/06 00:37:25;;;;;;;14.52;12.32;;;15.40;99.90;;;;;;5045867;28;20037;-72
2022/06/06 00:39:51;;;;;;;14.85;13.10;;;15.40;99.90;;;;;;5031567;28;20045;-73
2022/06/06 00:42:26;;;;;;;14.80;13.20;;;15.40;99.90;;;;;;5043937;28;20071;-73
2022/06/06 00:45:32;;;;;;;19.48;14.15;;;15.40;99.90;;;;;;5055301;28;20478;-73
2022/06/06 00:48:06;;;;;;;21.95;15.10;;;15.30;99.90;;;;;;5063691;28;20495;-74
2022/06/06 00:50:38;;;;;;;12.77;11.48;;;15.30;99.90;;;;;;5027810;28;20053;-73
2022/06/06 00:53:06;;;;;;;13.73;12.32;;;15.30;99.90;;;;;;5041950;28;20037;-74
2022/06/06 00:55:36;;;;;;;15.18;12.00;;;15.30;99.90;;;;;;5044552;28;20049;-74
2022/06/06 00:58:10;;;;;;;17.08;11.13;;;15.30;99.90;;;;;;5047402;28;20498;-74
2022/06/06 01:00:38;;;;;;;11.90;8.85;;;15.30;99.90;;;;;;5027452;28;20385;-75
2022/06/06 01:03:08;;;;;;;10.95;9.07;;;15.30;99.90;;;;;;5058133;28;20057;-74
2022/06/06 01:05:38;;;;;;;9.90;8.90;;;15.20;99.90;;;;;;5055533;28;20359;-74
2022/06/06 01:08:04;;;;;;;9.82;8.80;;;15.30;99.90;;;;;;5031361;28;20333;-73
2022/06/06 01:10:30;;;;;;;9.70;8.75;;;15.20;99.90;;;;;;5030345;28;20048;-74
2022/06/06 01:12:56;;;;;;;9.88;7.85;;;15.20;99.90;;;;;;5037072;28;20044;-72
2022/06/06 01:15:26;;;;;;;10.07;9.02;;;15.20;99.90;;;;;;5030221;28;20098;-72
2022/06/06 01:18:11;;;;;;;14.02;9.88;;;15.20;99.90;;;;;;5047854;28;20057;-73
2022/06/06 01:20:53;;;;;;;8.32;7.53;;;15.20;99.90;;;;;;5028256;28;20052;-73
2022/06/06 01:23:53;;;;;;;8.55;7.57;;;15.20;99.90;;;;;;5039653;28;20052;-73
2022/06/06 01:26:37;;;;;;;8.57;7.78;;;15.10;99.90;;;;;;5043715;28;20044;-73
2022/06/06 01:29:10;;;;;;;9.65;8.65;;;15.10;99.90;;;;;;5047355;28;20744;-73
2022/06/06 01:31:48;;;;;;;9.63;8.73;;;15.10;99.90;;;;;;5053029;28;20098;-73
2022/06/06 01:34:25;;;;;;;9.98;8.98;;;15.10;99.90;;;;;;5043166;28;20041;-73
2022/06/06 01:36:53;;;;;;;10.90;9.80;;;15.00;99.90;;;;;;5061394;28;20068;-72
2022/06/06 01:39:22;;;;;;;13.48;10.90;;;15.00;99.90;;;;;;5012377;28;20041;-73
2022/06/06 01:42:06;;;;;;;12.50;11.20;;;15.00;99.90;;;;;;5047057;28;20186;-72
2022/06/06 01:44:40;;;;;;;11.75;10.55;;;15.00;99.90;;;;;;5047807;28;20080;-73
2022/06/06 01:47:13;;;;;;;13.90;12.43;;;15.00;99.90;;;;;;5038261;28;20045;-73
2022/06/06 01:49:40;;;;;;;13.27;11.90;;;15.00;99.90;;;;;;5028764;28;20055;-72
2022/06/06 01:52:11;;;;;;;12.93;11.63;;;14.90;99.90;;;;;;5046128;28;20041;-72
2022/06/06 01:54:37;;;;;;;13.38;11.90;;;14.90;99.90;;;;;;5043190;28;20484;-72
2022/06/06 01:57:05;;;;;;;13.90;12.50;;;14.90;99.90;;;;;;5026344;28;20059;-71
2022/06/06 01:59:32;;;;;;;16.58;14.10;;;14.90;99.90;;;;;;5052335;28;20064;-71
2022/06/06 02:01:57;;;;;;;16.27;14.65;;;14.90;99.90;;;;;;5041306;28;20075;-72
2022/06/06 02:04:23;;;;;;;16.23;13.52;;;14.90;99.90;;;;;;5028108;28;20073;-72
2022/06/06 02:06:49;;;;;;;14.35;13.00;;;14.90;99.90;;;;;;5024712;28;20537;-72
2022/06/06 02:09:14;;;;;;;15.65;14.02;;;14.90;99.90;;;;;;5027462;28;20539;-72
2022/06/06 02:11:41;;;;;;;16.10;14.40;;;14.90;99.90;;;;;;5028039;28;20053;-72
2022/06/06 02:14:07;;;;;;;17.65;15.70;;;14.90;99.90;;;;;;5043966;28;20065;-72
2022/06/06 02:16:33;;;;;;;17.90;15.65;;;14.90;99.90;;;;;;5039650;28;20515;-73
2022/06/06 02:18:59;;;;;;;16.92;15.23;;;14.80;99.90;;;;;;5019678;28;20084;-73
2022/06/06 02:21:25;;;;;;;17.73;15.88;;;14.80;99.90;;;;;;5043936;28;20059;-71
2022/06/06 02:23:50;;;;;;;17.23;15.43;;;14.80;99.90;;;;;;5025413;28;20088;-72
2022/06/06 02:26:16;;;;;;;17.02;14.90;;;14.80;99.90;;;;;;5028109;28;20449;-71
2022/06/06 02:28:42;;;;;;;17.92;16.02;;;14.80;99.90;;;;;;5044486;28;20075;-71
2022/06/06 02:31:08;;;;;;;17.20;15.45;;;14.80;99.90;;;;;;5031290;28;20037;-72
2022/06/06 02:33:35;;;;;;;18.42;16.17;;;14.80;99.90;;;;;;5009115;28;20066;-73
2022/06/06 02:36:03;;;;;;;18.65;16.65;;;14.80;99.90;;;;;;5030970;28;20049;-73
2022/06/06 02:38:30;;;;;;;17.38;15.57;;;14.70;99.90;;;;;;5017409;28;20044;-73
2022/06/06 02:41:07;;;;;;;15.73;14.13;;;14.70;99.90;;;;;;5046938;28;20052;-72
2022/06/06 02:43:44;;;;;;;16.95;15.15;;;14.70;99.90;;;;;;5023748;28;20037;-72
2022/06/06 02:46:12;;;;;;;19.08;15.65;;;14.70;99.90;;;;;;5024683;28;20056;-71
2022/06/06 02:48:38;;;;;;;14.88;13.18;;;14.70;99.90;;;;;;5053561;28;20388;-71
2022/06/06 02:51:04;;;;;;;17.33;14.63;;;14.70;99.90;;;;;;5028725;28;20130;-71
2022/06/06 02:53:30;;;;;;;15.63;14.00;;;14.70;99.90;;;;;;5042399;28;20041;-72
2022/06/06 02:55:58;;;;;;;16.63;13.63;;;14.70;99.90;;;;;;5025119;28;20587;-71
2022/06/06 02:58:25;;;;;;;15.02;13.05;;;14.70;99.90;;;;;;5041698;28;20044;-71
2022/06/06 03:01:04;;;;;;;13.90;12.43;;;14.70;99.90;;;;;;5027392;28;20037;-72
2022/06/06 03:03:31;;;;;;;14.10;12.70;;;14.70;99.90;;;;;;5031203;28;20095;-73
2022/06/06 03:06:07;;;;;;;16.70;14.93;;;14.70;99.90;;;;;;5043996;28;20048;-71
2022/06/06 03:09:11;;;;;;;18.38;16.45;;;14.70;99.90;;;;;;5029153;28;20365;-73
2022/06/06 03:11:40;;;;;;;19.85;17.85;;;14.70;99.90;;;;;;5044159;28;20052;-73
2022/06/06 03:14:21;;;;;;;23.50;18.95;;;14.70;99.90;;;;;;5043366;28;20061;-73
2022/06/06 03:23:08;;;;;;;29.33;22.33;;;14.70;99.90;;;;;;5044610;28;20045;-72
2022/06/06 03:25:59;;;;;;;30.08;24.23;;;14.60;99.90;;;;;;5026828;28;20144;-73
2022/06/06 03:28:28;;;;;;;36.40;25.42;;;14.60;99.90;;;;;;5042931;28;20518;-72
2022/06/06 03:31:31;;;;;;;28.60;23.02;;;14.50;99.90;;;;;;5055033;28;20048;-73
2022/06/06 03:34:21;;;;;;;34.97;23.30;;;14.50;99.90;;;;;;5041370;28;20075;-71
2022/06/06 03:37:16;;;;;;;33.10;24.45;;;14.40;99.90;;;;;;5053462;28;20388;-72
2022/06/06 03:40:06;;;;;;;33.53;23.33;;;14.50;99.90;;;;;;5052108;28;20076;-72
2022/06/06 03:42:59;;;;;;;26.92;20.33;;;14.40;99.90;;;;;;5052356;28;20040;-74
2022/06/06 03:45:44;;;;;;;26.83;20.20;;;14.40;99.90;;;;;;5047569;28;20049;-72
2022/06/06 03:48:29;;;;;;;26.08;19.35;;;14.50;99.90;;;;;;5030391;28;20037;-73
2022/06/06 03:51:14;;;;;;;24.73;18.80;;;14.30;99.90;;;;;;5044683;28;20077;-73
2022/06/06 03:53:56;;;;;;;30.17;20.75;;;14.30;99.90;;;;;;5045409;28;20060;-73
2022/06/06 03:56:46;;;;;;;27.85;20.23;;;14.30;99.90;;;;;;5030167;28;20071;-73
2022/06/06 03:59:14;;;;;;;23.67;18.20;;;14.30;99.90;;;;;;5028713;28;20037;-73
2022/06/06 04:01:41;;;;;;;24.00;17.25;;;14.30;99.90;;;;;;5044361;28;20076;-74
2022/06/06 04:04:08;;;;;;;20.88;15.98;;;14.20;99.90;;;;;;5054342;28;20049;-73
2022/06/06 04:06:34;;;;;;;21.55;15.55;;;14.20;99.90;;;;;;5047413;28;20052;-73
2022/06/06 04:09:01;;;;;;;16.23;13.38;;;14.20;99.90;;;;;;5031894;28;20083;-73
2022/06/06 04:11:29;;;;;;;15.90;12.50;;;14.20;99.90;;;;;;5046642;28;20037;-73
2022/06/06 04:14:29;;;;;;;18.70;13.77;;;14.10;99.90;;;;;;5046334;28;20045;-73
2022/06/06 04:17:16;;;;;;;14.85;12.27;;;14.10;99.90;;;;;;5023876;28;20072;-72
2022/06/06 04:19:59;;;;;;;18.30;12.20;;;14.10;99.90;;;;;;5045190;28;20057;-72
2022/06/06 04:22:49;;;;;;;15.88;12.20;;;14.10;99.90;;;;;;5043357;28;20076;-72
2022/06/06 04:25:53;;;;;;;17.50;13.60;;;14.10;99.90;;;;;;5039950;28;20049;-72
2022/06/06 04:28:29;;;;;;;20.08;15.77;;;14.00;99.90;;;;;;5038983;28;20050;-72
2022/06/06 04:31:35;;;;;;;24.15;18.65;;;14.00;99.90;;;;;;5038748;28;20431;-71
2022/06/06 04:34:23;;;;;;;28.88;20.98;;;14.00;99.90;;;;;;5035825;28;20093;-72
2022/06/06 04:37:09;;;;;;;29.88;24.00;;;14.00;99.90;;;;;;5043262;28;20606;-72
2022/06/06 04:40:05;;;;;;;30.80;25.02;;;14.00;99.90;;;;;;5047184;28;20306;-73
2022/06/06 04:42:40;;;;;;;32.67;25.77;;;14.00;99.90;;;;;;5037445;28;20590;-72
2022/06/06 04:45:25;;;;;;;30.90;25.35;;;14.00;99.90;;;;;;5039462;28;20039;-73
2022/06/06 04:47:51;;;;;;;36.20;27.40;;;14.00;99.90;;;;;;5040712;28;20438;-72
2022/06/06 04:50:18;;;;;;;38.80;29.58;;;14.00;99.90;;;;;;5043292;28;20135;-73
2022/06/06 04:52:59;;;;;;;37.90;29.27;;;14.00;99.90;;;;;;5050089;28;20052;-74
2022/06/06 04:55:25;;;;;;;;;;;14.00;99.90;;;;;;5026921;28;20076;-73
2022/06/06 04:57:54;;;;;;;39.95;29.02;;;14.00;99.90;;;;;;5045569;28;20772;-73
2022/06/06 05:00:20;;;;;;;40.05;29.90;;;14.00;99.90;;;;;;5055944;28;20047;-72
2022/06/06 05:02:46;;;;;;;44.97;30.13;;;14.00;99.90;;;;;;5039125;28;20059;-72
2022/06/06 05:05:12;;;;;;;43.47;27.83;;;14.10;99.90;;;;;;5045157;28;20422;-72
2022/06/06 05:08:11;;;;;;;39.33;27.23;;;14.00;99.90;;;;;;5045338;28;20053;-72
2022/06/06 05:10:47;;;;;;;36.88;24.20;;;14.00;99.90;;;;;;5048548;28;20041;-71
2022/06/06 05:13:28;;;;;;;37.40;24.02;;;14.00;99.90;;;;;;5028089;28;20067;-72
2022/06/06 05:16:00;;;;;;;35.45;23.63;;;14.00;99.90;;;;;;5040902;28;20141;-71
2022/06/06 05:18:50;;;;;;;29.88;21.02;;;14.00;99.90;;;;;;5045507;28;20045;-72
2022/06/06 05:21:47;;;;;;;30.70;21.27;;;14.00;99.90;;;;;;5044804;28;20509;-72
2022/06/06 05:24:36;;;;;;;30.27;20.10;;;14.00;99.90;;;;;;5010326;28;20045;-71
2022/06/06 05:27:21;;;;;;;31.13;20.35;;;14.00;99.90;;;;;;5015015;28;20049;-71
2022/06/06 05:30:08;;;;;;;23.05;17.02;;;14.00;99.90;;;;;;5041109;28;20136;-72
2022/06/06 05:32:40;;;;;;;21.60;16.50;;;14.00;99.90;;;;;;5042183;28;20302;-74
2022/06/06 05:35:17;;;;;;;23.17;17.48;;;14.10;99.90;;;;;;5044301;28;20408;-72
2022/06/06 05:38:15;;;;;;;23.15;17.45;;;14.00;99.90;;;;;;5045679;28;20048;-73
2022/06/06 05:40:59;;;;;;;22.60;15.00;;;14.00;99.90;;;;;;5027992;28;20057;-74
2022/06/06 05:43:40;;;;;;;20.73;15.18;;;14.00;99.90;;;;;;5028831;28;20376;-74
2022/06/06 05:46:32;;;;;;;18.00;14.23;;;14.00;99.90;;;;;;5038887;28;20041;-73
2022/06/06 05:49:17;;;;;;;19.60;14.27;;;14.00;99.90;;;;;;5022551;28;20127;-72
2022/06/06 05:52:13;;;;;;;17.48;14.00;;;14.00;99.90;;;;;;5041812;28;20052;-73
2022/06/06 05:54:51;;;;;;;17.42;12.40;;;14.00;99.90;;;;;;5040116;28;20202;-73
2022/06/06 05:57:34;;;;;;;16.23;13.20;;;14.10;99.90;;;;;;5020921;28;20033;-73
2022/06/06 06:00:06;;;;;;;16.40;12.68;;;14.20;99.90;;;;;;5038457;28;20064;-72
2022/06/06 06:02:54;;;;;;;14.90;11.88;;;14.20;99.90;;;;;;5044021;28;20053;-71
2022/06/06 06:05:55;;;;;;;16.65;12.27;;;14.30;99.90;;;;;;5048669;28;20044;-72
2022/06/06 06:08:39;;;;;;;;;;;14.30;99.90;;;;;;5029988;28;20537;-72
2022/06/06 06:11:14;;;;;;;13.68;12.27;;;14.30;99.90;;;;;;5042941;28;19931;-71
2022/06/06 06:14:09;;;;;;;15.43;12.13;;;14.30;99.90;;;;;;5045403;28;20060;-72
2022/06/06 06:16:44;;;;;;;15.70;12.30;;;14.30;99.90;;;;;;5046346;28;20140;-71
2022/06/06 06:19:14;;;;;;;14.68;11.27;;;14.30;99.90;;;;;;5044690;28;20064;-72
2022/06/06 06:21:57;;;;;;;14.52;11.57;;;14.30;99.90;;;;;;5026281;28;20049;-72
2022/06/06 06:24:31;;;;;;;17.25;12.35;;;14.30;99.90;;;;;;5056671;28;20503;-72
2022/06/06 06:27:05;;;;;;;17.58;13.55;;;14.30;99.90;;;;;;5025184;28;20084;-72
2022/06/06 06:29:30;;;;;;;18.70;12.18;;;14.20;99.90;;;;;;5039407;28;20041;-72
2022/06/06 06:32:08;;;;;;;20.17;13.63;;;14.30;99.90;;;;;;5021297;28;20566;-73
2022/06/06 06:35:06;;;;;;;21.13;14.70;;;14.30;99.90;;;;;;5040312;28;20052;-72
2022/06/06 06:37:46;;;;;;;23.88;16.92;;;14.30;99.90;;;;;;5019534;28;20060;-72
2022/06/06 06:40:50;;;;;;;27.83;17.45;;;14.30;99.90;;;;;;5059129;28;20102;-73
2022/06/06 06:43:32;;;;;;;23.08;16.05;;;14.30;99.90;;;;;;5051780;28;20048;-72
2022/06/06 06:46:01;;;;;;;22.08;14.60;;;14.40;99.90;;;;;;5038940;28;20053;-73
2022/06/06 06:48:37;;;;;;;19.58;14.38;;;14.50;99.90;;;;;;5041928;28;20044;-72
2022/06/06 06:51:03;;;;;;;16.30;11.77;;;14.80;99.90;;;;;;5055310;28;20044;-71
2022/06/06 06:53:59;;;;;;;14.43;10.82;;;15.00;99.90;;;;;;5029914;28;20037;-72
2022/06/06 06:56:57;;;;;;;13.73;10.10;;;15.10;99.90;;;;;;5045085;28;20041;-73
2022/06/06 06:59:41;;;;;;;13.70;9.88;;;15.10;99.90;;;;;;5045489;28;20037;-72
2022/06/06 07:08:40;;;;;;;11.80;7.55;;;15.30;99.90;;;;;;5026426;28;20093;-72
2022/06/06 07:11:15;;;;;;;11.65;7.45;;;15.30;99.90;;;;;;5047593;28;20079;-71
2022/06/06 07:13:56;;;;;;;11.13;6.95;;;15.30;99.90;;;;;;5045310;28;20407;-71
2022/06/06 07:16:24;;;;;;;10.15;7.03;;;15.30;99.90;;;;;;5022713;28;20041;-71
2022/06/06 07:18:58;;;;;;;10.32;7.40;;;15.30;99.90;;;;;;5047140;28;20055;-71
2022/06/06 07:21:25;;;;;;;11.52;7.57;;;15.40;99.90;;;;;;5047995;28;20053;-72
2022/06/06 07:23:55;;;;;;;8.60;6.60;;;15.40;99.90;;;;;;5045473;28;20057;-71
2022/06/06 07:26:22;;;;;;;;;;;15.50;99.90;;;;;;5043637;28;20154;-71
2022/06/06 07:28:47;;;;;;;8.23;6.45;;;15.60;99.90;;;;;;5048291;28;20562;-71
2022/06/06 07:31:26;;;;;;;10.65;6.72;;;15.70;99.90;;;;;;5033164;28;20133;-71
2022/06/06 07:34:14;;;;;;;9.68;6.53;;;15.70;99.90;;;;;;5057642;28;20056;-72
2022/06/06 07:36:59;;;;;;;11.75;7.35;;;15.80;99.90;;;;;;5051318;28;20141;-72
2022/06/06 07:39:43;;;;;;;8.40;6.53;;;15.80;99.90;;;;;;5050963;28;20043;-71
2022/06/06 07:42:30;;;;;;;9.77;6.45;;;15.90;99.90;;;;;;5028059;28;20053;-71
2022/06/06 07:45:38;;;;;;;9.90;7.72;;;15.90;99.90;;;;;;5050603;28;20049;-71
2022/06/06 07:48:22;;;;;;;11.70;8.13;;;16.00;99.90;;;;;;5047186;28;20084;-73
2022/06/06 07:51:22;;;;;;;11.43;8.75;;;16.00;99.90;;;;;;5062836;28;20051;-71
2022/06/06 07:53:59;;;;;;;10.77;8.80;;;16.20;99.90;;;;;;5047068;28;20805;-71
2022/06/06 07:56:40;;;;;;;12.23;8.55;;;16.20;99.90;;;;;;5044124;28;20049;-72
2022/06/06 07:59:18;;;;;;;11.25;8.63;;;16.30;99.90;;;;;;5047025;28;20049;-73
2022/06/06 08:01:55;;;;;;;11.77;8.38;;;16.40;99.90;;;;;;5057096;28;20136;-73
2022/06/06 08:04:49;;;;;;;14.35;9.20;;;16.30;99.90;;;;;;5036938;28;20049;-72
2022/06/06 08:07:52;;;;;;;13.70;8.93;;;16.20;99.90;;;;;;5054010;28;20029;-72
2022/06/06 08:10:44;;;;;;;12.10;9.00;;;16.10;99.90;;;;;;5042480;28;20037;-72
2022/06/06 08:13:30;;;;;;;12.30;8.80;;;16.00;99.90;;;;;;5027233;28;20041;-72
2022/06/06 08:16:14;;;;;;;11.32;8.85;;;15.90;99.90;;;;;;5031431;28;20056;-72
2022/06/06 08:18:47;;;;;;;11.88;9.00;;;15.80;99.90;;;;;;5032845;28;20610;-72
2022/06/06 08:21:33;;;;;;;12.55;9.05;;;15.90;99.90;;;;;;5055090;28;20040;-72
2022/06/06 08:24:03;;;;;;;12.57;9.90;;;16.20;99.90;;;;;;5049840;28;20059;-72
2022/06/06 08:26:30;;;;;;;12.05;8.63;;;16.50;99.90;;;;;;5034748;28;20041;-72
2022/06/06 08:28:56;;;;;;;13.13;8.75;;;16.80;99.90;;;;;;5044242;28;20056;-73
2022/06/06 08:31:22;;;;;;;10.15;5.65;;;17.00;99.90;;;;;;5050675;28;20037;-72
2022/06/06 08:33:48;;;;;;;7.60;4.78;;;17.10;99.90;;;;;;5044651;28;20057;-72
2022/06/06 08:37:05;;;;;;;7.05;5.07;;;16.90;99.90;;;;;;5048226;28;20076;-73
2022/06/06 08:39:50;;;;;;;7.88;5.55;;;16.70;99.90;;;;;;5033621;28;20559;-73
2022/06/06 08:42:56;;;;;;;8.13;5.32;;;16.30;99.90;;;;;;5046280;28;20040;-72
2022/06/06 08:45:35;;;;;;;10.07;5.82;;;16.10;99.90;;;;;;5048998;28;20044;-72
2022/06/06 08:48:27;;;;;;;8.18;5.20;;;16.10;99.90;;;;;;5028274;28;20113;-73
2022/06/06 08:51:00;;;;;;;8.75;5.40;;;16.40;99.90;;;;;;5049644;28;20047;-72
2022/06/06 08:53:46;;;;;;;10.25;5.05;;;16.70;99.90;;;;;;5065781;28;20317;-72
2022/06/06 08:56:46;;;;;;;7.97;4.45;;;17.00;99.90;;;;;;5045440;28;20123;-72
2022/06/06 08:59:34;;;;;;;9.25;4.50;;;17.20;99.90;;;;;;5041862;28;20200;-72
2022/06/06 09:02:28;;;;;;;8.80;3.90;;;17.30;99.90;;;;;;5029147;28;20102;-72
2022/06/06 09:05:02;;;;;;;6.90;3.20;;;17.20;99.90;;;;;;5051223;28;20753;-72
2022/06/06 09:07:34;;;;;;;4.90;2.97;;;17.00;99.90;;;;;;5031134;28;20104;-72
2022/06/06 09:10:18;;;;;;;6.63;3.22;;;16.80;99.90;;;;;;5065495;28;20053;-72
2022/06/06 09:13:04;;;;;;;6.57;2.88;;;16.60;99.90;;;;;;5052049;28;20064;-73
2022/06/06 09:15:48;;;;;;;5.65;2.55;;;16.50;99.90;;;;;;5032043;28;20084;-72
2022/06/06 09:18:45;;;;;;;5.63;3.03;;;16.60;99.90;;;;;;5043762;28;20081;-71
2022/06/06 09:21:40;;;;;;;5.28;2.63;;;17.00;99.90;;;;;;5051121;28;20044;-72
2022/06/06 09:24:34;;;;;;;6.88;2.80;;;17.30;99.90;;;;;;5036300;28;20538;-73
2022/06/06 09:27:37;;;;;;;6.22;2.72;;;17.70;99.90;;;;;;5044174;28;20052;-73
2022/06/06 09:30:28;;;;;;;5.80;2.50;;;17.90;99.90;;;;;;5047693;28;20041;-72
2022/06/06 09:33:08;;;;;;;3.90;2.30;;;17.80;99.90;;;;;;5046756;28;20163;-72
2022/06/06 09:35:54;;;;;;;4.88;2.35;;;17.60;99.90;;;;;;5054052;28;20058;-72
2022/06/06 09:38:45;;;;;;;6.38;2.40;;;17.40;99.90;;;;;;5049911;28;20060;-72
2022/06/06 09:41:49;;;;;;;9.13;3.60;;;17.20;99.90;;;;;;5046507;28;20124;-72
2022/06/06 09:44:15;;;;;;;6.05;3.60;;;17.20;99.90;;;;;;5055187;28;20060;-71
2022/06/06 09:47:18;;;;;;;5.68;3.40;;;17.30;99.90;;;;;;5048755;28;20053;-72
2022/06/06 09:49:47;;;;;;;5.68;3.70;;;17.40;99.90;;;;;;5042489;28;20087;-73
2022/06/06 09:52:32;;;;;;;6.97;4.00;;;17.60;99.90;;;;;;5045638;28;20507;-71
2022/06/06 10:01:53;;;;;;;4.63;3.53;;;17.30;99.90;;;;;;5037421;28;20045;-72
2022/06/06 10:04:41;;;;;;;8.02;3.88;;;17.40;99.90;;;;;;5033885;28;20427;-72
2022/06/06 10:07:07;;;;;;;6.68;4.10;;;17.70;99.90;;;;;;5061609;28;20058;-72
2022/06/06 10:09:39;;;;;;;6.05;3.85;;;18.10;99.90;;;;;;5025941;28;20048;-71
2022/06/06 10:12:41;;;;;;;7.15;3.47;;;18.50;99.90;;;;;;5046853;28;20053;-72
2022/06/06 10:15:35;;;;;;;6.85;2.78;;;18.70;99.90;;;;;;5047596;28;21884;-71
2022/06/06 10:18:16;;;;;;;4.45;1.85;;;18.60;99.90;;;;;;5047823;28;20786;-72
2022/06/06 10:21:22;;;;;;;6.43;2.58;;;18.20;99.90;;;;;;5044787;28;20055;-72
2022/06/06 10:24:20;;;;;;;5.68;2.75;;;17.30;99.90;;;;;;5050968;28;20507;-72
2022/06/06 10:26:56;;;;;;;4.38;2.35;;;16.50;99.90;;;;;;5047275;28;20041;-73
2022/06/06 10:30:11;;;;;;;5.50;2.90;;;16.00;99.90;;;;;;5041614;28;20045;-73
2022/06/06 10:33:03;;;;;;;6.45;4.75;;;15.80;99.90;;;;;;5024478;28;20161;-73
2022/06/06 10:35:50;;;;;;;8.02;5.15;;;15.80;99.90;;;;;;5027567;28;20135;-73
2022/06/06 10:38:41;;;;;;;5.55;4.70;;;16.10;99.90;;;;;;5044187;28;20048;-73
2022/06/06 10:41:25;;;;;;;9.00;5.65;;;16.60;99.90;;;;;;5041408;28;20053;-73
2022/06/06 10:44:16;;;;;;;6.75;3.45;;;16.80;99.90;;;;;;5050747;28;20716;-71
2022/06/06 10:47:16;;;;;;;6.32;2.50;;;16.90;99.90;;;;;;5043306;28;20095;-72
2022/06/06 10:50:09;;;;;;;5.05;2.92;;;16.80;99.90;;;;;;5026344;28;20076;-71
2022/06/06 10:53:19;;;;;;;6.10;3.38;;;16.80;99.90;;;;;;5047957;28;20036;-71
2022/06/06 10:56:16;;;;;;;3.75;2.20;;;17.10;99.90;;;;;;5062160;28;20049;-71
2022/06/06 10:59:10;;;;;;;5.72;2.30;;;17.30;99.90;;;;;;5059228;28;20045;-71
2022/06/06 11:02:06;;;;;;;5.18;2.70;;;17.30;99.90;;;;;;5041866;28;20045;-71
2022/06/06 11:04:54;;;;;;;2.85;1.92;;;17.20;99.90;;;;;;5037296;28;20158;-70
2022/06/06 11:07:25;;;;;;;5.50;2.17;;;17.20;99.90;;;;;;5053099;28;20500;-70
2022/06/06 11:10:32;;;;;;;5.45;2.30;;;17.20;99.90;;;;;;5052228;28;20762;-71
2022/06/06 11:13:21;;;;;;;5.43;2.80;;;17.30;99.90;;;;;;5043632;28;20049;-70
2022/06/06 11:16:26;;;;;;;4.55;2.40;;;17.40;99.90;;;;;;5044382;28;20048;-70
2022/06/06 11:19:22;;;;;;;6.38;2.85;;;17.70;99.90;;;;;;5004296;28;20136;-71
2022/06/06 11:22:20;;;;;;;5.50;3.17;;;18.00;99.90;;;;;;5058928;28;20392;-70
2022/06/06 11:24:56;;;;;;;7.88;3.30;;;18.00;99.90;;;;;;5045900;28;20052;-72
2022/06/06 11:27:52;;;;;;;4.60;2.75;;;18.10;99.90;;;;;;5043784;28;20091;-71
2022/06/06 11:30:53;;;;;;;4.70;2.75;;;18.30;99.90;;;;;;5040821;28;20053;-71
2022/06/06 11:33:51;;;;;;;4.05;2.60;;;18.60;99.90;;;;;;5031366;28;20069;-70
2022/06/06 11:36:38;;;;;;;3.65;2.35;;;18.50;99.90;;;;;;5030612;28;20053;-71
2022/06/06 11:39:32;;;;;;;5.30;2.22;;;18.40;99.90;;;;;;5046551;28;20687;-71
2022/06/06 11:42:19;;;;;;;5.53;2.17;;;18.40;99.90;;;;;;5055208;28;20037;-72
2022/06/06 11:45:04;;;;;;;4.50;2.40;;;18.30;99.90;;;;;;5047406;28;20667;-72
2022/06/06 11:47:51;;;;;;;4.60;2.20;;;18.30;99.90;;;;;;5032410;28;20040;-71
2022/06/06 11:50:23;;;;;;;4.85;2.28;;;18.40;99.90;;;;;;5031384;28;20380;-72
2022/06/06 11:53:00;;;;;;;4.18;2.47;;;18.50;99.90;;;;;;5045570;28;20109;-71
2022/06/06 11:55:55;;;;;;;4.30;2.65;;;18.60;99.90;;;;;;5048323;28;20052;-73
2022/06/06 11:58:42;;;;;;;4.95;2.28;;;18.80;99.90;;;;;;5047575;28;20075;-71
2022/06/06 12:01:23;;;;;;;3.55;1.80;;;18.90;99.90;;;;;;5027889;28;20064;-71
2022/06/06 12:03:57;;;;;;;5.43;1.40;;;19.00;99.90;;;;;;5054283;28;20140;-71
2022/06/06 12:06:50;;;;;;;4.05;1.40;;;18.90;99.90;;;;;;5047353;28;20558;-71
2022/06/06 12:09:24;;;;;;;3.58;0.93;;;18.70;99.90;;;;;;5045199;28;20043;-71
2022/06/06 12:11:50;;;;;;;3.50;0.90;;;18.60;99.90;;;;;;5053434;28;20067;-70
2022/06/06 12:14:50;;;;;;;2.45;0.90;;;18.50;99.90;;;;;;5034977;28;20511;-70
2022/06/06 12:17:33;;;;;;;4.32;1.10;;;18.50;99.90;;;;;;5024453;28;20041;-70
2022/06/06 12:20:14;;;;;;;4.07;1.20;;;18.60;99.90;;;;;;5045029;28;20124;-70
2022/06/06 12:23:37;;;;;;;2.72;0.90;;;18.50;99.90;;;;;;5029136;28;20045;-70
2022/06/06 12:26:03;;;;;;;1.70;0.95;;;18.40;99.90;;;;;;5004912;28;20048;-71
2022/06/06 12:29:02;;;;;;;2.05;1.00;;;18.40;99.90;;;;;;5002685;28;20037;-71
2022/06/06 12:31:40;;;;;;;3.53;0.98;;;18.40;99.90;;;;;;5037499;28;20099;-71
2022/06/06 12:34:14;;;;;;;1.40;0.77;;;18.40;99.90;;;;;;5053059;28;20087;-71
2022/06/06 12:37:22;;;;;;;3.22;1.30;;;18.40;99.90;;;;;;5063152;28;20098;-71
2022/06/06 12:40:05;;;;;;;4.00;1.30;;;18.30;99.90;;;;;;5012893;28;20085;-70
2022/06/06 12:42:34;;;;;;;3.08;1.30;;;18.20;99.90;;;;;;5059168;28;20122;-71
2022/06/06 12:45:25;;;;;;;2.20;1.17;;;18.10;99.90;;;;;;5048151;28;20060;-71
2022/06/06 12:48:16;;;;;;;3.55;1.67;;;18.10;99.90;;;;;;5048398;28;20128;-71
2022/06/06 12:51:07;;;;;;;3.33;1.75;;;18.00;99.90;;;;;;5056428;28;20136;-71
2022/06/06 12:54:01;;;;;;;3.78;1.40;;;17.80;99.90;;;;;;5055905;28;20045;-72
2022/06/06 12:56:37;;;;;;;3.67;2.05;;;17.70;99.90;;;;;;5044442;28;20044;-72
2022/06/06 12:59:30;;;;;;;3.38;1.55;;;17.60;99.90;;;;;;5028342;28;20045;-71
2022/06/06 13:02:22;;;;;;;4.78;1.92;;;17.50;99.90;;;;;;5050779;28;20045;-71
2022/06/06 13:05:14;;;;;;;4.70;1.60;;;17.40;99.90;;;;;;5006793;28;20045;-71
2022/06/06 13:08:17;;;;;;;1.73;1.48;;;17.40;99.90;;;;;;5051489;28;20060;-71
2022/06/06 13:11:13;;;;;;;3.75;1.80;;;17.40;99.90;;;;;;5050167;28;20044;-72
2022/06/06 13:13:57;;;;;;;4.22;2.33;;;17.50;99.90;;;;;;5043375;28;20056;-71
2022/06/06 13:16:50;;;;;;;3.20;1.20;;;17.40;99.90;;;;;;5049367;28;20045;-72
2022/06/06 13:19:44;;;;;;;1.95;1.40;;;17.40;99.90;;;;;;5022976;28;20037;-72
2022/06/06 13:22:29;;;;;;;2.63;1.50;;;17.40;99.90;;;;;;5053421;28;20492;-72
2022/06/06 13:25:27;;;;;;;3.25;1.15;;;17.40;99.90;;;;;;5056166;28;20203;-71
2022/06/06 13:27:59;;;;;;;2.60;1.00;;;17.40;99.90;;;;;;5051259;28;20059;-72
2022/06/06 13:30:38;;;;;;;3.40;1.30;;;17.40;99.90;;;;;;5043365;28;20551;-72
2022/06/06 13:33:23;;;;;;;3.05;1.10;;;17.30;99.90;;;;;;5047223;28;20057;-72
2022/06/06 13:36:08;;;;;;;3.42;1.27;;;17.20;99.90;;;;;;5067704;28;20052;-73
2022/06/06 13:38:53;;;;;;;2.28;1.40;;;17.10;99.90;;;;;;5028394;28;20045;-72
2022/06/06 13:41:34;;;;;;;4.57;1.90;;;17.00;99.90;;;;;;5030076;28;20037;-72
2022/06/06 13:44:10;;;;;;;5.47;2.25;;;16.90;99.90;;;;;;5044757;28;20080;-72
2022/06/06 13:46:48;;;;;;;4.72;2.90;;;16.80;99.90;;;;;;5039601;28;20049;-73
2022/06/06 13:49:20;;;;;;;5.93;3.50;;;16.70;99.90;;;;;;5049440;28;20082;-74
2022/06/06 13:52:08;;;;;;;5.65;3.55;;;16.50;99.90;;;;;;5044870;28;20053;-74
2022/06/06 13:54:36;;;;;;;4.22;3.78;;;16.40;99.90;;;;;;5030474;28;20222;-73
2022/06/06 13:57:26;;;;;;;6.45;4.05;;;16.20;99.90;;;;;;5044060;28;20055;-73
2022/06/06 14:00:26;;;;;;;4.90;4.40;;;16.00;99.90;;;;;;5043669;28;20710;-72
2022/06/06 14:03:32;;;;;;;4.78;4.10;;;15.80;99.90;;;;;;5045095;28;20053;-72
2022/06/06 14:06:16;;;;;;;4.68;3.70;;;15.70;99.90;;;;;;5055215;28;20109;-73
2022/06/06 14:09:00;;;;;;;5.53;3.92;;;15.60;99.90;;;;;;5042847;28;20060;-73
2022/06/06 14:11:56;;;;;;;6.43;4.13;;;15.60;99.90;;;;;;5050311;28;20036;-73